Aérodrome :
LOGIN :

S'inscrire | Disclaimer

   EN    FR    IT 

 










Légende :    VFR   VFR Marginal   IFR   IFR Intensif   IFR Très Intensif
Visi : 
Plafond : 
>= 8 km
>= 3000ft
5 à 8 km
1000 à 3000 ft
1500m à 5 km
500 à 1000 ft
800 à 1500m
200 à 500 ft
< 800m
< 200 ft
Symboles :   Orages  Brouillard  Fortes neiges  Fortes précipitations  Vent > 20 kt
SIGMETs :   Divers  Orages  Givrage  Turbulence  Onde Orograph.  Cendres Volcan.






- Altitude de l'aérodrome : 325 ft
- Code IATA : BES


LFRB - Brest

DERNIER METAR :
  • 210200Z AUTO 01004KT 9999 FEW030/// SCT072/// BKN088/// ///CB 09/08 Q1015 TEMPO 1500 MIFG

METARs EXPIRÉS :
  • 210130Z AUTO 01005KT 9999 FEW020/// BKN058/// BKN070/// ///TCU 09/08 Q1015 TEMPO 1500 MIFG
  • 210100Z AUTO 36005KT 9999 FEW030/// SCT043/// BKN056/// ///TCU 09/07 Q1015 TEMPO 1500 MIFG
  • 210030Z AUTO 33004KT 9999 -RA FEW023/// SCT040/// OVC050/// ///TCU 09/08 Q1015 TEMPO 1500 MIFG
  • 210000Z AUTO 31004KT 9999 BKN047/// OVC054/// ///TCU 08/07 Q1015 TEMPO 1500 MIFG
  • 202330Z AUTO 34002KT CAVOK 09/07 Q1015 TEMPO 1500 MIFG BKN015TCU

TAF TAF LFRB
Valide du 21 à 00h jusqu'au 22 à 06h UTC


202300Z 2100/2206 01005KT 9999 SCT025 BKN060
PROB30
TEMPO 2100/2118 SHRA BKN015TCU
PROB30
TEMPO 2100/2107 1500 MIFG
BECMG 2123/2202 VRB03KT 0300 FG VV///
ATIS : +33 2 98 32 02 71



MET'MAP, la Météo Aéronautique d'un coup d'oeil ! - Copyright ORBIFLY Décembre 2007 - Disclaimer

ORBIFLY MET'MAP TEAM :

Programmation & Développement : Alexandra Zaïnal
Conception & Développement : Baudouin d'Aumeries
Co-Programmation & Développement : Marc-Olivier Méhu
Soutien technique & logistique : Manuel Goepfert

Contact : metmap@orbifly.com




SOURCES & CREDITS :

   NOAA